This is the latest recevied weather packets stored in our database for station/object I2TZK-00. If no packets are shown the sender has not sent any weather packets the latest 10 day(s).
| Time | Temp. | Humidity | Pressure | Rain* | Wind** | Luminosity | Snow |
|---|---|---|---|---|---|---|---|
| 1787841884 | 28.33° C | 49% | 1010.1 hPa | - | - | - | - |
| 1787841676 | 28.33° C | 48% | 1010 hPa | - | - | - | - |
| 1787841614 | 28.33° C | 48% | 1010 hPa | - | - | - | - |
| 1787841434 | 28.33° C | 48% | 1009.9 hPa | - | - | - | - |
| 1787841255 | 28.33° C | 47% | 1010 hPa | - | - | - | - |
| 1787841075 | 28.33° C | 47% | 1010 hPa | - | - | - | - |
| 1787840895 | 28.33° C | 46% | 1010 hPa | - | - | - | - |
| 1787840715 | 28.33° C | 46% | 1010.2 hPa | - | - | - | - |
| 1787840160 | 28.33° C | 44% | 1010 hPa | - | - | - | - |
| 1787839911 | 28.33° C | 45% | 1010 hPa | - | - | - | - |
| 1787839731 | 28.33° C | 46% | 1010 hPa | - | - | - | - |
| 1787839475 | 28.89° C | 47% | 1009.9 hPa | - | - | - | - |
| 1787838950 | 30° C | 57% | 1008.6 hPa | - | - | - | - |
| 1787838771 | 30° C | 59% | 1008.5 hPa | - | - | - | - |
| 1787838591 | 30.56° C | 56% | 1008.3 hPa | - | - | - | - |
| 1787838411 | 30.56° C | 56% | 1008.2 hPa | - | - | - | - |
| 1787838231 | 30.56° C | 56% | 1008.2 hPa | - | - | - | - |
| 1787838052 | 30.56° C | 55% | 1008.2 hPa | - | - | - | - |
| 1787837872 | 30.56° C | 55% | 1008.2 hPa | - | - | - | - |
| 1787837692 | 30.56° C | 55% | 1008.2 hPa | - | - | - | - |
| 1787837513 | 30.56° C | 56% | 1008.2 hPa | - | - | - | - |
| 1787837333 | 30.56° C | 55% | 1008.3 hPa | - | - | - | - |
| 1787837153 | 30.56° C | 54% | 1008.2 hPa | - | - | - | - |
| 1787836973 | 30.56° C | 54% | 1008.4 hPa | - | - | - | - |
| 1787836794 | 30.56° C | 55% | 1008.4 hPa | - | - | - | - |
* Rain since midnight (hover to see other rain measurements)
** Current wind speed in m/s (hover to see current wind gust speed)